CJX5 weather

Souris Glenwood Industrial Air Park
Souris Glenwood, Manitoba, Canada

Public forecast

Using degrees Celsius for public forecast. Weather courtesy of forecast.io.

Closest aviation weather report (METAR) to Souris Glenwood Industrial Air Park

Closest report is Brandon Municipal Airport, 19.2 nm (35.6 km) NNE. Retrieved 2019/10/21 07:00 UTC (5 minutes ago):

CYBR 210700Z 31003KT 15SM BKN200 01/M02 A2990 RMK CI6 SLP143

Closest aviation forecast (TAF) to Souris Glenwood Industrial Air Park

Closest forecast is Brandon Municipal Airport, 19.2 nm (35.6 km) NNE. Retrieved 2019/10/21 06:42 UTC (23 minutes ago):

TAF CYBR 210538Z 2106/2118 33008KT P6SM BKN100 FM211200 03008KT P6SM SCT200 RMK NXT FCST BY 211200Z